Fabius, New York
Current Conditions -  °F | °C
As of 12:54 AM on Tuesday 27 Jan 2015 (Local Time) from KSYR Reporting Station
Light Snow Light Snow  
Wind Chill:   Ceiling: 6000
Heat Index: 13°   Visibility: 9mi
Dew Point:   Wind: 6mph
Humidity: 84%   Direction: 340°NNW
Pressure: 29.9"   Gusts: NA
Location:  42.84°N, 75.99°W
Report Text: KSYR 270554Z 34005KT 9SM -SN BKN060 OVC080 M11/M13 A2990 RMK AO2 SNB11 SLP131 PCPN VRY LGT 4/003 P0000 60000 T11061128 11078 21106 58014 $
Loading
Personal Weather Stations






























Interactive Weather Map New forecast layout! Learn more

10-Day Weather Forecast

Advertisements
Track Severe Weather on mobile